Surface observations / UK / EGOM

Quebec | Canada | USA | France | UK | Europe | Elsewhere

Display: Info & Location for EGOM | Help decoding METAR


Raw surface observations for station EGOM
EGOM 250350Z AUTO 23016G27KT 8000 BR OVC003/// 08/08 Q0997=
EGOM 250250Z AUTO 23015KT 9999 OVC004/// 08/08 Q0997=
EGOM 250150Z AUTO 22012KT 9999 OVC003/// 08/08 Q0997 RERA=
EGOM 250050Z AUTO 21015KT 9999 OVC004/// 08/08 Q0998 RERA=
EGOM 242350Z AUTO 22012KT 9999 OVC005/// 09/08 Q0998 RERA=
EGOM 242250Z AUTO 21009KT 8000 -SHRA OVC004/// 08/08 Q0999=
EGOM 242150Z AUTO 22008KT 5000 -RA BKN007/// BKN015/// 08/08 Q1000=
EGOM 242050Z AUTO 22013KT 1000 +DZ BKN001/// BKN005/// 08/07 Q1000=
EGOM 241950Z AUTO 25012KT 5000 -DZ FEW003/// BKN013/// 08/07 Q1001=
EGOM 241850Z AUTO 25014KT 5000 BR FEW004/// BKN017/// BKN050/// 08/07 Q1002 RERA=
EGOM 241750Z AUTO 25012KT 4300 -DZ FEW004/// BKN011/// 08/07 Q1003=
EGOM 241650Z AUTO 25009KT 9999 ///////// 00/// Q1004=
EGOM 241550Z AUTO 25009KT 9999 ///////// 00/// Q1004=
EGOM 241450Z AUTO 25009KT 9999 ///////// 00/// Q1004=
EGOM 241350Z AUTO 26015KT 9999 BKN014/// BKN021/// 11/06 Q1005=
EGOM 241250Z AUTO 27013KT 9000 HZ BKN008/// 12/07 Q1006=
EGOM 241150Z AUTO 27015KT 9999 SCT011/// BKN022/// 12/08 Q1006=
EGOM 241050Z AUTO 26015KT 9999 SCT017/// BKN031/// 12/07 Q1007=
EGOM 240950Z AUTO 25012KT 9999 BKN015/// 11/06 Q1007=
EGOM 240850Z AUTO 25012KT 9999 FEW015/// 11/06 Q1008=
EGOM 240750Z AUTO 26011KT 9999 FEW040/// 10/06 Q1008=
EGOM 240650Z AUTO 24007KT 7000 HZ BKN038/// 08/06 Q1008=
EGOM 240550Z AUTO 27005KT 3800 BR NCD 05/05 Q1009=
EGOM 240450Z AUTO 28005KT 3800 BR SCT190/// 05/04 Q1009=
EGOM 240350Z AUTO 29006KT 4900 HZ NCD 05/04 Q1009=